Time;durP1;ratioP1;P1;durP2;ratioP2;P2;SDS_P1;SDS_P2;PMS_P1;PMS_P2;Temp;Humidity;BMP_temperature;BMP_pressure;BME280_temperature;BME280_humidity;BME280_pressure;Samples;Min_cycle;Max_cycle;Signal;HPM_P1;HPM_P2
2022/08/16 07:17:59;;;;;;;5.28;2.70;;;;;;;22.50;63.47;98357.63;5100480;27;20162;-81
2022/08/16 07:20:27;;;;;;;11.23;2.97;;;;;;;22.94;62.89;98367.97;5090223;28;20044;-78
2022/08/16 07:22:55;;;;;;;6.60;3.00;;;;;;;22.78;63.09;98369.97;5084760;28;20131;-78
2022/08/16 07:25:22;;;;;;;6.75;2.88;;;;;;;23.05;62.10;98367.88;5100972;28;20043;-78
2022/08/16 07:27:49;;;;;;;5.93;2.85;;;;;;;23.10;61.39;98367.91;5090677;28;20052;-80
2022/08/16 07:30:17;;;;;;;7.32;2.97;;;;;;;23.32;60.73;98361.94;5098679;28;20134;-80
2022/08/16 07:32:44;;;;;;;3.67;2.58;;;;;;;23.23;61.01;98356.19;5082612;28;20052;-79
2022/08/16 07:35:12;;;;;;;4.53;2.97;;;;;;;23.53;59.97;98368.16;5092880;28;20098;-80
2022/08/16 07:37:38;;;;;;;4.00;2.85;;;;;;;23.18;61.79;98360.91;5091260;28;20044;-80
2022/08/16 07:40:06;;;;;;;4.72;2.55;;;;;;;23.68;58.97;98356.09;5084772;28;20048;-80
2022/08/16 07:42:32;;;;;;;8.40;3.22;;;;;;;23.91;59.22;98353.69;5093841;28;20169;-80
2022/08/16 07:45:01;;;;;;;5.18;2.90;;;;;;;23.96;58.11;98348.91;5095676;28;20052;-80
2022/08/16 07:47:28;;;;;;;7.07;2.80;;;;;;;23.84;58.89;98346.50;5090165;28;20048;-80
2022/08/16 07:49:55;;;;;;;7.50;3.00;;;;;;;23.98;57.74;98354.19;5087740;28;20048;-79
2022/08/16 07:52:23;;;;;;;6.38;3.05;;;;;;;23.20;60.02;98355.91;5095296;28;20044;-80
2022/08/16 07:54:50;;;;;;;8.45;3.38;;;;;;;23.51;60.21;98348.19;5088867;28;20044;-80
2022/08/16 07:57:16;;;;;;;5.47;2.80;;;;;;;23.52;59.90;98349.03;5090707;28;20052;-79
2022/08/16 07:59:43;;;;;;;4.10;3.03;;;;;;;23.75;59.09;98351.03;5102319;28;20093;-80
2022/08/16 08:02:10;;;;;;;7.53;3.85;;;;;;;24.08;57.90;98351.31;5094134;28;20056;-80
2022/08/16 08:04:37;;;;;;;6.55;3.13;;;;;;;24.15;58.00;98362.06;5101335;28;20050;-80
2022/08/16 08:07:04;;;;;;;6.80;3.00;;;;;;;24.08;57.35;98365.19;5088373;28;20084;-80
2022/08/16 08:09:32;;;;;;;5.28;2.47;;;;;;;23.81;58.37;98362.91;5086354;28;20085;-80
2022/08/16 08:11:58;;;;;;;7.15;2.80;;;;;;;24.02;58.37;98358.84;5102999;28;20066;-80
2022/08/16 08:14:25;;;;;;;6.70;3.20;;;;;;;24.26;57.32;98360.00;5100926;28;20048;-80
2022/08/16 08:16:52;;;;;;;11.10;3.33;;;;;;;24.48;56.79;98362.25;5097947;28;20469;-80
2022/08/16 08:19:19;;;;;;;6.32;3.30;;;;;;;24.21;56.82;98361.72;5109452;27;20089;-80
2022/08/16 08:21:46;;;;;;;5.20;2.97;;;;;;;24.37;56.35;98362.38;5110631;27;20072;-80
2022/08/16 08:24:13;;;;;;;4.40;3.00;;;;;;;24.54;56.38;98367.47;5108510;27;20059;-80
2022/08/16 08:26:42;;;;;;;9.48;3.10;;;;;;;24.60;55.58;98370.19;5114989;27;20047;-80
2022/08/16 08:29:10;;;;;;;11.10;4.03;;;;;;;24.31;55.78;98371.06;5110216;28;20059;-80
2022/08/16 08:31:37;;;;;;;6.88;3.33;;;;;;;23.96;55.83;98379.44;5100170;28;20040;-80
2022/08/16 08:34:06;;;;;;;10.93;2.95;;;;;;;23.89;56.41;98381.72;5091969;28;20048;-80
2022/08/16 08:36:34;;;;;;;8.63;3.33;;;;;;;24.16;55.65;98364.56;5085218;28;20048;-80
2022/08/16 08:39:02;;;;;;;6.70;3.35;;;;;;;24.43;55.78;98384.53;5093328;28;20052;-80
2022/08/16 08:41:29;;;;;;;4.90;2.80;;;;;;;24.56;54.73;98375.50;5095208;28;20467;-80
2022/08/16 08:43:58;;;;;;;6.53;3.03;;;;;;;24.73;54.28;98381.44;5100242;28;20048;-80
2022/08/16 08:46:28;;;;;;;5.63;3.10;;;;;;;24.97;54.52;98376.94;5108853;28;20057;-80
2022/08/16 08:48:55;;;;;;;;;;;;;;;24.70;53.65;98381.19;5099609;28;20534;-80
2022/08/16 08:51:22;;;;;;;7.97;3.40;;;;;;;24.80;54.43;98383.03;5093204;28;19925;-80
2022/08/16 08:53:49;;;;;;;5.97;3.20;;;;;;;24.94;52.67;98372.81;5097130;28;20051;-80
2022/08/16 08:56:15;;;;;;;14.23;3.30;;;;;;;24.97;53.50;98383.31;5101074;28;20052;-79
2022/08/16 08:58:42;;;;;;;7.13;3.60;;;;;;;24.99;53.07;98392.22;5092037;28;20483;-80
2022/08/16 09:01:10;;;;;;;5.18;2.97;;;;;;;24.85;53.11;98385.72;5099834;28;20155;-80
2022/08/16 09:03:38;;;;;;;7.88;3.53;;;;;;;24.60;53.07;98390.50;5094635;28;20062;-79
2022/08/16 09:06:07;;;;;;;3.95;3.45;;;;;;;24.62;53.32;98393.78;5093170;28;20131;-80
2022/08/16 09:08:34;;;;;;;5.13;2.90;;;;;;;24.74;52.74;98398.94;5094616;28;20080;-80
2022/08/16 09:11:01;;;;;;;5.45;3.40;;;;;;;24.98;53.24;98390.56;5098315;28;20078;-80
2022/08/16 09:13:27;;;;;;;7.20;3.55;;;;;;;25.29;51.92;98395.66;5100290;28;20044;-80
2022/08/16 09:15:55;;;;;;;7.68;3.00;;;;;;;25.30;50.88;98394.56;5095094;28;20044;-80
2022/08/16 09:18:24;;;;;;;6.63;3.38;;;;;;;25.58;50.47;98380.81;5094989;28;20075;-80
2022/08/16 09:20:52;;;;;;;9.18;3.30;;;;;;;25.48;50.00;98394.88;5085063;28;20052;-80
2022/08/16 09:23:19;;;;;;;8.38;3.15;;;;;;;25.41;49.75;98400.81;5075989;28;20056;-80
2022/08/16 09:25:46;;;;;;;5.70;3.30;;;;;;;25.65;49.72;98395.16;5102685;28;20131;-80
2022/08/16 09:28:12;;;;;;;5.78;3.22;;;;;;;25.69;48.51;98398.97;5096697;28;20048;-80
2022/08/16 09:30:39;;;;;;;3.55;3.25;;;;;;;25.73;48.34;98391.69;5090964;28;20082;-80
2022/08/16 09:33:07;;;;;;;6.22;3.22;;;;;;;25.85;47.93;98373.66;5099506;28;20051;-80
2022/08/16 09:35:36;;;;;;;7.47;3.42;;;;;;;25.55;48.11;98376.66;5099142;28;20135;-80
2022/08/16 09:38:03;;;;;;;4.05;3.00;;;;;;;25.68;48.81;98388.16;5096679;28;20101;-80
2022/08/16 09:40:29;;;;;;;4.38;3.22;;;;;;;25.82;47.33;98377.91;5101763;28;20044;-80
2022/08/16 09:42:57;;;;;;;6.28;3.20;;;;;;;25.48;47.97;98392.91;5102576;28;20036;-80
2022/08/16 09:45:24;;;;;;;7.13;3.60;;;;;;;25.24;48.50;98396.56;5102686;28;20047;-80
2022/08/16 09:47:53;;;;;;;5.40;3.47;;;;;;;25.23;48.89;98386.59;5101563;28;20096;-80
2022/08/16 09:50:22;;;;;;;3.50;3.20;;;;;;;25.59;47.78;98386.06;5088685;28;20055;-80
2022/08/16 09:52:49;;;;;;;4.70;3.35;;;;;;;25.79;47.01;98376.56;5104451;28;20073;-80
2022/08/16 09:55:16;;;;;;;6.72;3.00;;;;;;;26.14;46.52;98371.50;5099106;28;20101;-80
2022/08/16 09:57:42;;;;;;;3.65;2.90;;;;;;;26.06;46.68;98383.34;5091497;28;20048;-80
2022/08/16 10:00:11;;;;;;;6.57;2.80;;;;;;;26.22;45.93;98378.31;5098732;28;20059;-80
2022/08/16 10:02:38;;;;;;;4.33;3.10;;;;;;;26.25;45.19;98380.47;5094137;28;20053;-80
2022/08/16 10:05:05;;;;;;;4.55;3.03;;;;;;;26.38;44.68;98369.69;5094363;28;20491;-81
2022/08/16 10:07:32;;;;;;;6.05;3.33;;;;;;;26.02;46.34;98368.38;5092955;28;20652;-80
2022/08/16 10:10:00;;;;;;;6.53;3.30;;;;;;;25.96;46.04;98362.03;5083303;28;20058;-80
2022/08/16 10:15:15;;;;;;;5.55;3.20;;;;;;;25.68;46.83;98365.88;5098109;28;20528;-80
2022/08/16 10:17:41;;;;;;;4.35;3.38;;;;;;;25.69;46.62;98360.03;5093516;28;20048;-80
2022/08/16 10:20:10;;;;;;;6.68;3.42;;;;;;;26.01;46.09;98363.94;5092869;28;20044;-80
2022/08/16 10:22:36;;;;;;;8.43;4.70;;;;;;;25.93;46.88;98361.84;5089672;28;20044;-80
2022/08/16 10:25:05;;;;;;;4.45;2.78;;;;;;;25.76;46.53;98365.22;5090601;28;20138;-80
2022/08/16 10:27:34;;;;;;;6.28;3.10;;;;;;;25.72;47.15;98361.38;5090925;28;20071;-80
2022/08/16 10:30:00;;;;;;;5.15;2.75;;;;;;;25.95;46.81;98376.28;5094115;28;20040;-80
2022/08/16 10:32:27;;;;;;;7.93;3.28;;;;;;;26.44;45.66;98374.03;5101735;28;20051;-80
2022/08/16 10:34:53;;;;;;;3.63;3.05;;;;;;;26.77;44.73;98371.97;5096648;28;20048;-81
2022/08/16 10:37:21;;;;;;;4.10;3.42;;;;;;;26.52;44.69;98380.81;5107895;28;20047;-80
2022/08/16 10:39:48;;;;;;;6.80;3.35;;;;;;;26.69;44.58;98381.03;5098728;27;20491;-80
2022/08/16 10:42:16;;;;;;;11.57;3.17;;;;;;;26.57;45.09;98380.72;5098806;28;20040;-81
2022/08/16 10:44:43;;;;;;;5.55;3.55;;;;;;;26.68;44.85;98387.78;5090703;28;20067;-80
2022/08/16 10:47:10;;;;;;;6.80;3.72;;;;;;;26.50;44.85;98383.94;5095306;28;20089;-80
2022/08/16 10:49:37;;;;;;;4.18;3.28;;;;;;;26.30;45.13;98379.56;5090784;28;20438;-79
2022/08/16 10:52:04;;;;;;;7.60;3.47;;;;;;;26.25;45.19;98372.13;5097026;28;20055;-79
2022/08/16 10:54:31;;;;;;;7.35;3.08;;;;;;;26.43;44.62;98378.75;5090276;28;20433;-80
2022/08/16 10:56:58;;;;;;;4.20;2.90;;;;;;;26.37;45.05;98381.94;5091706;28;20407;-80
2022/08/16 10:59:30;;;;;;;6.07;2.72;;;;;;;26.28;45.18;98379.06;5096296;28;20044;-81
2022/08/16 11:01:56;;;;;;;4.60;3.13;;;;;;;26.65;43.93;98380.00;5093077;28;20044;-80
2022/08/16 11:04:25;;;;;;;5.43;3.10;;;;;;;26.95;43.48;98386.94;5098581;28;20519;-80
2022/08/16 11:06:51;;;;;;;4.35;3.10;;;;;;;26.56;44.43;98388.25;5095501;28;20102;-81
2022/08/16 11:09:18;;;;;;;8.73;3.25;;;;;;;26.59;44.28;98389.63;5098109;28;20105;-80
2022/08/16 11:11:45;;;;;;;6.00;3.30;;;;;;;26.27;44.33;98380.19;5102115;28;20144;-80
2022/08/16 11:14:12;;;;;;;8.10;3.45;;;;;;;26.41;45.02;98378.25;5077705;28;20036;-80
2022/08/16 11:16:40;;;;;;;7.25;3.58;;;;;;;26.82;43.93;98373.81;5096923;28;20051;-81
2022/08/16 11:19:07;;;;;;;4.65;3.13;;;;;;;26.95;43.29;98378.56;5097468;28;20056;-81
2022/08/16 11:21:35;;;;;;;7.38;3.03;;;;;;;26.95;43.80;98388.88;5098744;28;20292;-81
2022/08/16 11:24:03;;;;;;;6.90;3.28;;;;;;;26.73;43.65;98389.63;5097569;28;20059;-80
2022/08/16 11:26:30;;;;;;;4.53;3.28;;;;;;;26.86;43.44;98391.59;5090166;28;20124;-80
2022/08/16 11:28:57;;;;;;;5.53;3.42;;;;;;;26.85;43.38;98379.59;5099034;28;20046;-80
2022/08/16 11:31:24;;;;;;;9.77;3.42;;;;;;;27.50;42.44;98383.19;5096732;28;20467;-80
2022/08/16 11:33:52;;;;;;;5.18;3.50;;;;;;;27.75;42.11;98380.06;5091340;28;20051;-80
2022/08/16 11:36:19;;;;;;;7.82;2.75;;;;;;;28.21;41.28;98376.13;5093623;28;20051;-81
2022/08/16 11:38:46;;;;;;;4.93;2.85;;;;;;;28.24;40.45;98375.47;5101497;28;20146;-81
2022/08/16 11:41:13;;;;;;;7.28;3.28;;;;;;;28.58;40.22;98366.41;5106183;28;20056;-80
2022/08/16 11:43:40;;;;;;;5.78;2.90;;;;;;;28.38;39.80;98373.41;5103920;28;20048;-81
2022/08/16 11:46:10;;;;;;;6.78;2.83;;;;;;;28.63;39.14;98370.25;5099403;28;20047;-80
2022/08/16 11:48:37;;;;;;;7.10;3.10;;;;;;;28.53;38.73;98368.53;5086373;28;20102;-80
2022/08/16 11:51:05;;;;;;;10.60;3.67;;;;;;;28.14;39.43;98379.38;5091223;28;20172;-81
2022/08/16 11:53:33;;;;;;;6.05;2.75;;;;;;;27.87;40.20;98377.56;5095956;28;20479;-80
2022/08/16 11:56:00;;;;;;;9.73;2.95;;;;;;;27.59;40.43;98366.50;5098226;28;20097;-80
2022/08/16 11:58:30;;;;;;;4.85;3.20;;;;;;;27.68;39.98;98367.38;5100960;28;20447;-80
2022/08/16 12:00:58;;;;;;;6.75;3.20;;;;;;;27.75;40.60;98372.53;5102190;28;20048;-80
2022/08/16 12:03:26;;;;;;;6.03;3.17;;;;;;;28.28;40.17;98359.72;5081946;28;20097;-80
2022/08/16 12:05:52;;;;;;;7.00;3.30;;;;;;;28.65;39.26;98362.34;5102375;28;20075;-81
2022/08/16 12:08:22;;;;;;;3.25;2.67;;;;;;;28.91;38.58;98362.44;5112531;28;20044;-80
2022/08/16 12:10:48;;;;;;;4.15;2.78;;;;;;;28.93;37.87;98360.13;5104912;28;21049;-80
2022/08/16 12:13:15;;;;;;;4.45;2.90;;;;;;;28.51;38.76;98368.84;5109690;28;20509;-81
2022/08/16 12:15:42;;;;;;;9.00;3.00;;;;;;;27.86;39.35;98376.69;5093609;28;20144;-80
2022/08/16 12:18:10;;;;;;;3.60;3.10;;;;;;;28.14;38.75;98359.81;5093534;28;20051;-80
2022/08/16 12:20:39;;;;;;;5.13;2.72;;;;;;;28.40;37.40;98354.34;5097766;28;20039;-80
2022/08/16 12:23:06;;;;;;;4.93;2.70;;;;;;;28.70;37.07;98354.66;5110790;28;20051;-80
2022/08/16 12:25:36;;;;;;;4.15;2.97;;;;;;;28.96;37.07;98356.66;5101203;28;20380;-80
2022/08/16 12:28:04;;;;;;;;;;;;;;;28.94;36.65;98348.59;5108298;28;20048;-80
2022/08/16 12:30:33;;;;;;;6.32;2.30;;;;;;;29.15;36.31;98336.78;5102650;28;19920;-80
2022/08/16 12:33:03;;;;;;;;;;;;;;;29.26;36.23;98349.31;5092559;28;20097;-80
2022/08/16 12:35:31;;;;;;;8.93;3.33;;;;;;;29.52;35.74;98347.69;5097112;28;20363;-80
2022/08/16 12:37:59;;;;;;;5.30;3.00;;;;;;;29.53;35.74;98343.72;5099579;28;20101;-80
2022/08/16 12:40:30;;;;;;;8.50;2.65;;;;;;;29.87;35.61;98348.50;5104122;28;20051;-80
2022/08/16 12:43:00;;;;;;;6.22;2.80;;;;;;;29.83;35.60;98350.31;5103501;28;20056;-80
2022/08/16 12:45:29;;;;;;;4.47;2.72;;;;;;;30.03;34.79;98345.16;5092497;28;20071;-80
2022/08/16 12:50:40;;;;;;;3.83;2.40;;;;;;;29.46;33.56;98342.25;5093127;28;20522;-80
2022/08/16 12:53:06;;;;;;;2.75;2.25;;;;;;;29.37;34.10;98344.22;5090792;28;20048;-80
2022/08/16 12:55:33;;;;;;;3.10;2.42;;;;;;;29.47;34.65;98343.88;5092034;28;20097;-80
2022/08/16 12:58:01;;;;;;;4.07;2.50;;;;;;;29.57;35.25;98325.94;5099761;28;20058;-80
2022/08/16 13:00:30;;;;;;;3.78;2.38;;;;;;;30.07;33.83;98332.94;5100861;28;20056;-80
2022/08/16 13:02:57;;;;;;;4.20;2.38;;;;;;;30.18;33.66;98337.00;5093377;28;20044;-80
2022/08/16 13:05:24;;;;;;;6.43;2.60;;;;;;;29.89;33.61;98337.75;5093827;28;20059;-80
2022/08/16 13:07:50;;;;;;;3.15;2.20;;;;;;;29.61;33.80;98331.69;5098999;28;20516;-80
2022/08/16 13:10:17;;;;;;;6.32;2.50;;;;;;;30.12;32.82;98315.13;5090686;28;20052;-80
2022/08/16 13:12:47;;;;;;;5.50;2.70;;;;;;;29.55;34.06;98330.22;5091666;28;20059;-81
2022/08/16 13:15:21;;;;;;;5.68;2.60;;;;;;;29.76;34.30;98317.16;5091363;28;20062;-80
2022/08/16 13:17:48;;;;;;;10.82;2.72;;;;;;;30.01;33.77;98312.69;5092431;28;20094;-80
2022/08/16 13:20:17;;;;;;;3.13;2.50;;;;;;;30.06;33.47;98322.88;5107741;28;20136;-80
2022/08/16 13:22:48;;;;;;;3.72;2.47;;;;;;;30.45;33.42;98306.91;5099721;28;20125;-80
2022/08/16 13:25:20;;;;;;;6.30;2.50;;;;;;;30.63;32.92;98306.81;5094820;28;20051;-80
2022/08/16 13:27:47;;;;;;;7.45;2.53;;;;;;;31.03;32.74;98315.66;5083888;28;20247;-80
2022/08/16 13:30:16;;;;;;;4.45;2.75;;;;;;;31.34;32.01;98317.22;5090019;28;20098;-80
2022/08/16 13:32:42;;;;;;;3.17;2.15;;;;;;;31.17;31.91;98309.78;5106647;28;20048;-80
2022/08/16 13:35:09;;;;;;;3.15;2.50;;;;;;;31.13;31.79;98317.22;5091641;28;20466;-80
2022/08/16 13:37:36;;;;;;;4.72;2.50;;;;;;;30.57;32.58;98314.59;5109676;28;20043;-82
